createdAt,value
2023-03-29T00:02:34.651Z,4.68
2023-03-29T00:07:36.313Z,4.81
2023-03-29T00:12:39.706Z,4.75
2023-03-29T00:17:41.288Z,4.68
2023-03-29T00:22:43.314Z,4.70
2023-03-29T00:27:44.881Z,4.78
2023-03-29T00:32:46.799Z,4.67
2023-03-29T00:37:50.763Z,4.64
2023-03-29T00:42:52.537Z,4.61
2023-03-29T00:48:13.909Z,4.64
2023-03-29T00:53:26.156Z,4.65
2023-03-29T00:58:36.167Z,4.64
2023-03-29T01:03:46.526Z,4.50
2023-03-29T01:08:51.529Z,4.52
2023-03-29T01:14:03.700Z,4.39
2023-03-29T01:19:08.283Z,4.61
2023-03-29T01:24:35.296Z,4.56
2023-03-29T01:29:50.007Z,4.45
2023-03-29T01:35:14.076Z,4.31
2023-03-29T01:40:15.814Z,4.38
2023-03-29T01:45:25.162Z,4.33
2023-03-29T01:50:26.687Z,4.31
2023-03-29T01:55:33.965Z,4.26
2023-03-29T02:00:38.592Z,4.21
2023-03-29T02:05:42.362Z,4.19
2023-03-29T02:10:44.521Z,4.19
2023-03-29T02:15:47.525Z,4.24
2023-03-29T02:20:50.711Z,4.27
2023-03-29T02:25:54.040Z,4.25
2023-03-29T02:31:06.362Z,4.31
2023-03-29T02:36:17.584Z,4.26
2023-03-29T02:41:20.502Z,4.21
2023-03-29T02:46:22.366Z,4.44
2023-03-29T02:51:28.264Z,4.33
2023-03-29T02:56:30.283Z,4.30
2023-03-29T03:01:31.939Z,4.48
2023-03-29T03:06:33.563Z,4.41
2023-03-29T03:11:35.371Z,4.38
2023-03-29T03:16:37.266Z,4.37
2023-03-29T03:21:39.192Z,4.38
2023-03-29T03:26:40.806Z,4.41
2023-03-29T03:31:42.951Z,4.47
2023-03-29T03:37:02.569Z,4.27
2023-03-29T03:42:08.434Z,4.38
2023-03-29T03:47:14.538Z,4.31
2023-03-29T03:52:18.289Z,4.47
2023-03-29T03:57:20.190Z,4.44
2023-03-29T04:02:26.649Z,4.49
2023-03-29T04:07:28.569Z,4.42
2023-03-29T04:12:30.490Z,4.39
2023-03-29T04:17:32.440Z,4.41
2023-03-29T04:22:39.116Z,4.49
2023-03-29T04:27:40.962Z,4.19
2023-03-29T04:32:56.747Z,3.96
2023-03-29T04:37:59.693Z,4.30
2023-03-29T04:43:03.305Z,4.49
2023-03-29T04:48:06.146Z,4.54
2023-03-29T04:53:12.222Z,4.47
2023-03-29T04:58:14.548Z,4.63
2023-03-29T05:03:18.150Z,4.23
2023-03-29T05:08:40.520Z,4.57
2023-03-29T05:13:57.264Z,4.58
2023-03-29T05:19:02.053Z,4.50
2023-03-29T05:24:09.937Z,4.64
2023-03-29T05:29:44.803Z,4.92
2023-03-29T05:35:12.416Z,4.84
2023-03-29T05:40:14.265Z,5.07
2023-03-29T05:45:35.866Z,4.96
2023-03-29T05:50:38.422Z,5.08
2023-03-29T05:55:42.413Z,5.14
2023-03-29T06:00:46.566Z,5.13
2023-03-29T06:06:04.198Z,4.93
2023-03-29T06:11:10.858Z,5.22
2023-03-29T06:16:31.517Z,5.26
2023-03-29T06:21:33.427Z,5.49
2023-03-29T06:26:36.389Z,5.48
2023-03-29T06:31:38.145Z,5.55
2023-03-29T06:36:43.317Z,5.65
2023-03-29T06:41:45.262Z,5.57
2023-03-29T06:47:07.343Z,5.48
2023-03-29T06:52:09.778Z,5.51
2023-03-29T06:57:13.310Z,5.65
2023-03-29T07:02:16.440Z,5.75
2023-03-29T07:07:22.538Z,5.82
2023-03-29T07:12:30.973Z,5.86
2023-03-29T07:17:35.253Z,5.87
2023-03-29T07:22:37.429Z,5.91
2023-03-29T07:27:40.844Z,6.01
2023-03-29T07:32:46.937Z,6.11
2023-03-29T07:38:11.952Z,6.10
2023-03-29T07:43:20.408Z,6.01
2023-03-29T07:48:23.521Z,6.05
2023-03-29T07:53:29.786Z,6.03
2023-03-29T07:58:33.431Z,6.23
2023-03-29T08:03:36.187Z,6.30
2023-03-29T08:08:39.809Z,6.29
2023-03-29T08:13:46.193Z,6.23
2023-03-29T08:19:07.103Z,6.21
2023-03-29T08:24:41.407Z,6.24
2023-03-29T08:29:43.601Z,6.29
2023-03-29T08:34:46.765Z,6.41
2023-03-29T08:40:02.089Z,6.44
2023-03-29T08:45:38.073Z,6.28
2023-03-29T08:50:46.105Z,6.50
2023-03-29T08:55:48.904Z,6.69
2023-03-29T09:01:09.202Z,6.71
2023-03-29T09:06:22.108Z,6.83
2023-03-29T09:11:32.526Z,6.93
2023-03-29T09:16:38.484Z,7.04
2023-03-29T09:21:43.282Z,7.04
2023-03-29T09:26:47.610Z,7.12
2023-03-29T09:32:03.488Z,7.20
2023-03-29T09:37:12.471Z,7.29
2023-03-29T09:42:16.918Z,7.26
2023-03-29T09:47:28.363Z,7.39
2023-03-29T09:52:32.294Z,7.41
2023-03-29T09:57:43.781Z,7.39
2023-03-29T10:02:52.709Z,7.46
2023-03-29T10:08:01.115Z,7.56
2023-03-29T10:13:18.921Z,7.80
2023-03-29T10:18:20.541Z,7.92
2023-03-29T10:23:22.100Z,7.95
2023-03-29T10:28:26.235Z,8.01
2023-03-29T10:33:33.232Z,8.00
2023-03-29T10:38:35.923Z,8.11
2023-03-29T10:43:40.942Z,8.16
2023-03-29T10:48:46.306Z,8.19
2023-03-29T10:53:47.925Z,8.15
2023-03-29T10:59:10.816Z,8.29
2023-03-29T11:04:29.903Z,8.35
2023-03-29T11:09:53.200Z,8.27
2023-03-29T11:15:14.615Z,8.45
2023-03-29T11:20:33.668Z,8.53
2023-03-29T11:25:44.233Z,8.63
2023-03-29T11:30:51.909Z,8.63
2023-03-29T11:36:04.098Z,8.73
2023-03-29T11:41:16.008Z,8.88
2023-03-29T11:46:25.761Z,8.98
2023-03-29T11:51:33.773Z,8.96
2023-03-29T11:56:46.774Z,9.04
2023-03-29T12:02:17.800Z,9.08
2023-03-29T12:07:41.695Z,9.18
2023-03-29T12:12:48.406Z,9.18
2023-03-29T12:18:26.155Z,9.29
2023-03-29T12:23:31.692Z,9.45
2023-03-29T12:28:36.654Z,9.59
2023-03-29T12:34:06.677Z,9.70
2023-03-29T12:39:27.777Z,9.68
2023-03-29T12:44:59.699Z,9.75
2023-03-29T12:50:07.259Z,9.77
2023-03-29T12:55:33.171Z,9.75
2023-03-29T13:00:45.012Z,9.92
2023-03-29T13:05:46.990Z,9.79
2023-03-29T13:10:56.158Z,9.76
2023-03-29T13:16:09.691Z,9.85
2023-03-29T13:21:39.270Z,9.92
2023-03-29T13:26:52.748Z,9.95
2023-03-29T13:32:22.951Z,10.06
2023-03-29T13:37:53.126Z,10.08
2023-03-29T13:42:58.549Z,10.14
2023-03-29T13:48:22.537Z,10.13
2023-03-29T13:53:30.117Z,10.08
2023-03-29T13:58:55.810Z,10.18
2023-03-29T14:03:57.793Z,10.19
2023-03-29T14:09:04.883Z,10.24
2023-03-29T14:14:08.097Z,10.31
2023-03-29T14:19:18.878Z,10.39
2023-03-29T14:24:27.678Z,10.42
2023-03-29T14:29:33.859Z,10.46
2023-03-29T14:34:35.472Z,10.41
2023-03-29T14:39:38.190Z,10.40
2023-03-29T14:44:39.906Z,10.40
2023-03-29T14:49:41.577Z,10.50
2023-03-29T14:54:46.965Z,10.61
2023-03-29T14:59:54.233Z,10.62
2023-03-29T15:04:57.884Z,10.60
2023-03-29T15:10:00.043Z,10.62
2023-03-29T15:15:02.578Z,10.56
2023-03-29T15:20:12.549Z,10.61
2023-03-29T15:25:18.858Z,10.66
2023-03-29T15:30:20.575Z,10.58
2023-03-29T15:35:25.668Z,10.57
2023-03-29T15:40:28.195Z,10.58
2023-03-29T15:45:29.818Z,10.62
2023-03-29T15:50:32.463Z,10.63
2023-03-29T15:55:34.131Z,10.61
2023-03-29T16:00:36.498Z,10.64
2023-03-29T16:05:38.150Z,10.62
2023-03-29T16:10:41.172Z,10.61
2023-03-29T16:15:43.255Z,10.61
2023-03-29T16:20:44.853Z,10.61
2023-03-29T16:25:46.464Z,10.61
2023-03-29T16:30:48.392Z,10.57
2023-03-29T16:35:50.013Z,10.48
2023-03-29T16:40:52.590Z,10.45
2023-03-29T16:45:54.612Z,10.35
2023-03-29T16:50:57.247Z,10.35
2023-03-29T16:55:58.883Z,10.33
2023-03-29T17:01:10.761Z,10.32
2023-03-29T17:06:12.654Z,10.23
2023-03-29T17:11:15.487Z,10.29
2023-03-29T17:16:17.460Z,10.26
2023-03-29T17:21:19.152Z,10.17
2023-03-29T17:26:20.888Z,10.15
2023-03-29T17:31:22.536Z,10.05
2023-03-29T17:36:25.366Z,10.08
2023-03-29T17:41:28.575Z,10.06
2023-03-29T17:46:32.267Z,10.03
2023-03-29T17:51:33.870Z,9.94
2023-03-29T17:56:35.669Z,9.98
2023-03-29T18:01:39.192Z,9.99
2023-03-29T18:06:42.516Z,9.93
2023-03-29T18:11:44.081Z,9.93
2023-03-29T18:16:45.750Z,9.93
2023-03-29T18:21:47.404Z,9.93
2023-03-29T18:26:48.981Z,9.89
2023-03-29T18:31:50.621Z,9.91
2023-03-29T18:36:53.974Z,9.89
2023-03-29T18:41:55.945Z,9.86
2023-03-29T18:46:57.510Z,9.87
2023-03-29T18:51:59.171Z,9.81
2023-03-29T18:57:00.946Z,9.80
2023-03-29T19:02:03.173Z,9.77
2023-03-29T19:07:04.754Z,9.74
2023-03-29T19:12:06.913Z,9.72
2023-03-29T19:17:08.497Z,9.78
2023-03-29T19:22:10.096Z,9.81
2023-03-29T19:27:12.649Z,9.79
2023-03-29T19:32:14.303Z,9.80
2023-03-29T19:37:17.507Z,9.76
2023-03-29T19:42:19.063Z,9.73
2023-03-29T19:47:20.806Z,9.71
2023-03-29T19:52:23.900Z,9.65
2023-03-29T19:57:25.706Z,9.53
2023-03-29T20:02:27.392Z,9.39
2023-03-29T20:07:29.018Z,9.32
2023-03-29T20:12:30.892Z,9.48
2023-03-29T20:17:32.586Z,9.49
2023-03-29T20:22:34.167Z,9.55
2023-03-29T20:27:36.066Z,9.57
2023-03-29T20:32:37.759Z,9.56
2023-03-29T20:37:39.419Z,9.58
2023-03-29T20:42:41.545Z,9.58
2023-03-29T20:47:50.136Z,9.50
2023-03-29T20:52:54.196Z,9.57
2023-03-29T20:57:59.274Z,9.61
2023-03-29T21:03:03.753Z,9.58
2023-03-29T21:08:05.516Z,9.51
2023-03-29T21:13:07.587Z,9.54
2023-03-29T21:18:09.260Z,9.51
2023-03-29T21:23:11.127Z,9.50
2023-03-29T21:28:13.335Z,9.47
2023-03-29T21:33:15.299Z,9.49
2023-03-29T21:38:17.365Z,9.48
2023-03-29T21:43:25.528Z,9.47
2023-03-29T21:48:27.240Z,9.42
2023-03-29T21:53:28.851Z,9.35
2023-03-29T21:58:31.649Z,9.28
2023-03-29T22:03:33.396Z,9.13
2023-03-29T22:08:38.776Z,9.23
2023-03-29T22:13:41.528Z,9.25
2023-03-29T22:18:44.892Z,9.19
2023-03-29T22:23:49.708Z,9.11
2023-03-29T22:28:51.663Z,9.07
2023-03-29T22:33:53.682Z,9.15
2023-03-29T22:38:55.915Z,9.08
2023-03-29T22:43:59.121Z,9.08
2023-03-29T22:49:00.725Z,9.14
2023-03-29T22:54:02.322Z,9.09
2023-03-29T22:59:03.998Z,9.07
2023-03-29T23:04:06.187Z,9.02
2023-03-29T23:09:07.990Z,9.09
2023-03-29T23:14:09.650Z,9.06
2023-03-29T23:19:11.185Z,8.92
2023-03-29T23:24:13.407Z,9.00
2023-03-29T23:29:15.385Z,9.04
2023-03-29T23:34:18.164Z,9.05
2023-03-29T23:39:19.751Z,9.06
2023-03-29T23:44:21.372Z,9.04
2023-03-29T23:49:22.981Z,8.90
2023-03-29T23:54:25.266Z,9.04
2023-03-29T23:59:30.560Z,9.08
